KRAW Airport (Warsaw Muni) Information

FAA: RAW - ICAO: KRAW

KRAW Airport Location

State Missouri
County Benton
City Warsaw
KRAW Airport is 6 miles north of Warsaw, MO.
Latitude 38-20-52.2500N
Longitude 093-20-43.3950W
Elevation 936ft

KRAW Airport METARs

METAR KRAW 180735Z AUTO 18004KT 10SM CLR 11/07 A3015 RMK AO2 T01060066
Altimeter 30.15"
Temperature 10.6°C (51.1°F)
Wind 180° at 4KT
Clouds Skies are clear.
Visibility 10.0mi
Time observed: 2021-10-18T07:35:00Z

KRAW Airport Details

Status Operational
Activation N/A
Ownership Public
Usage Public
Chart KANSAS CITY
ATC on-site No
Beacon schedule sunset-sunrise
Beacon color clear green

KRAW Airport Contacts

Owner CITY OF WARSAW
Owner address P.O. BOX 68, 181 W. HARRISON, WARSAW, MO 65355
Owner phone 660-438-5522
Manager GAYLE PICKENS, CEO
Manager address 1926 OAK STREET, UNIONVILLE, MO 63565
Manager phone 660-947-2411

KRAW Airport (Warsaw Muni) Radio Frequencies

KRAW (Airport) Radio Frequencies

UNICOM N/A
Common traffic advisory frequency (CTAF) 122.9